createdAt,value
2022-09-28T00:01:06.395Z,1.10
2022-09-28T00:03:34.102Z,1.55
2022-09-28T00:06:03.379Z,1.10
2022-09-28T00:08:31.268Z,0.85
2022-09-28T00:10:59.604Z,1.13
2022-09-28T00:13:28.095Z,0.85
2022-09-28T00:16:06.321Z,0.90
2022-09-28T00:18:35.964Z,0.90
2022-09-28T00:21:05.917Z,1.13
2022-09-28T00:23:34.445Z,1.10
2022-09-28T00:26:05.304Z,1.00
2022-09-28T00:28:33.419Z,0.73
2022-09-28T00:31:01.243Z,1.20
2022-09-28T00:33:30.320Z,0.90
2022-09-28T00:35:59.319Z,0.93
2022-09-28T00:38:29.248Z,0.90
2022-09-28T00:40:57.080Z,1.10
2022-09-28T00:43:26.303Z,1.45
2022-09-28T00:46:00.018Z,1.15
2022-09-28T00:48:33.294Z,1.10
2022-09-28T00:51:05.420Z,1.20
2022-09-28T00:53:35.790Z,1.10
2022-09-28T00:56:07.297Z,1.30
2022-09-28T00:58:38.838Z,1.23
2022-09-28T01:01:07.935Z,1.23
2022-09-28T01:03:38.619Z,1.20
2022-09-28T01:06:08.606Z,1.50
2022-09-28T01:08:37.869Z,1.65
2022-09-28T01:11:06.268Z,1.90
2022-09-28T01:13:34.459Z,1.60
2022-09-28T01:16:13.056Z,1.65
2022-09-28T01:18:52.573Z,1.73
2022-09-28T01:21:22.327Z,2.28
2022-09-28T01:24:15.391Z,2.35
2022-09-28T01:26:57.522Z,2.67
2022-09-28T01:29:45.717Z,2.22
2022-09-28T01:32:22.067Z,1.52
2022-09-28T01:34:58.727Z,1.92
2022-09-28T01:37:31.989Z,1.90
2022-09-28T01:40:03.524Z,1.75
2022-09-28T01:42:35.814Z,1.98
2022-09-28T01:45:07.876Z,2.08
2022-09-28T01:47:40.145Z,2.10
2022-09-28T01:50:12.401Z,2.05
2022-09-28T01:52:46.682Z,1.90
2022-09-28T01:55:21.703Z,1.70
2022-09-28T01:57:56.302Z,2.38
2022-09-28T02:00:26.048Z,1.60
2022-09-28T02:02:58.323Z,1.75
2022-09-28T02:05:30.987Z,1.98
2022-09-28T02:08:04.468Z,1.67
2022-09-28T02:10:39.205Z,2.00
2022-09-28T02:13:12.968Z,1.80
2022-09-28T02:15:46.688Z,2.03
2022-09-28T02:18:15.015Z,2.38
2022-09-28T02:20:48.156Z,2.05
2022-09-28T02:23:17.771Z,1.90
2022-09-28T02:25:49.713Z,1.83
2022-09-28T02:28:18.992Z,1.98
2022-09-28T02:30:47.119Z,2.10
2022-09-28T02:33:19.061Z,2.00
2022-09-28T02:35:47.092Z,2.05
2022-09-28T02:38:16.374Z,1.85
2022-09-28T02:40:49.097Z,1.95
2022-09-28T02:43:24.299Z,1.60
2022-09-28T02:46:02.975Z,1.83
2022-09-28T02:49:00.159Z,1.60
2022-09-28T02:51:41.796Z,1.67
2022-09-28T02:54:24.566Z,1.33
2022-09-28T02:57:02.875Z,1.50
2022-09-28T02:59:46.011Z,1.40
2022-09-28T03:02:23.567Z,2.22
2022-09-28T03:05:04.948Z,2.20
2022-09-28T03:07:37.392Z,2.22
2022-09-28T03:10:12.225Z,3.17
2022-09-28T03:12:40.490Z,2.33
2022-09-28T03:15:13.276Z,2.42
2022-09-28T03:17:41.324Z,2.42
2022-09-28T03:20:11.571Z,2.30
2022-09-28T03:22:39.291Z,2.80
2022-09-28T03:25:08.547Z,2.75
2022-09-28T03:27:36.279Z,3.13
2022-09-28T03:30:04.668Z,2.55
2022-09-28T03:32:33.704Z,2.50
2022-09-28T03:35:01.443Z,2.30
2022-09-28T03:37:29.839Z,1.55
2022-09-28T03:39:57.666Z,1.77
2022-09-28T03:42:25.616Z,1.50
2022-09-28T03:44:53.316Z,1.48
2022-09-28T03:47:21.298Z,1.20
2022-09-28T03:49:50.310Z,1.63
2022-09-28T03:52:17.998Z,1.20
2022-09-28T03:54:49.096Z,1.50
2022-09-28T03:57:17.126Z,1.25
2022-09-28T03:59:44.832Z,1.50
2022-09-28T04:02:12.562Z,1.80
2022-09-28T04:04:40.322Z,1.45
2022-09-28T04:07:09.332Z,2.05
2022-09-28T04:09:37.020Z,1.73
2022-09-28T04:12:04.914Z,1.20
2022-09-28T04:14:32.619Z,1.60
2022-09-28T04:17:00.315Z,1.30
2022-09-28T04:19:28.093Z,1.40
2022-09-28T04:21:55.778Z,1.10
2022-09-28T04:24:24.819Z,1.50
2022-09-28T04:27:12.589Z,1.20
2022-09-28T04:29:43.015Z,1.40
2022-09-28T04:32:11.285Z,1.25
2022-09-28T04:34:43.266Z,1.35
2022-09-28T04:37:11.728Z,1.15
2022-09-28T04:39:44.996Z,1.23
2022-09-28T04:42:15.719Z,1.33
2022-09-28T04:44:43.443Z,1.17
2022-09-28T04:47:11.216Z,1.30
2022-09-28T04:49:39.244Z,1.25
2022-09-28T04:52:07.760Z,1.35
2022-09-28T04:54:35.787Z,1.17
2022-09-28T04:57:05.999Z,1.05
2022-09-28T04:59:33.836Z,0.95
2022-09-28T05:02:01.609Z,1.02
2022-09-28T05:04:30.421Z,1.08
2022-09-28T05:06:58.289Z,1.23
2022-09-28T05:09:25.992Z,1.50
2022-09-28T05:11:54.000Z,2.03
2022-09-28T05:14:23.087Z,1.83
2022-09-28T05:16:50.924Z,1.30
2022-09-28T05:19:18.904Z,1.90
2022-09-28T05:21:48.663Z,1.90
2022-09-28T05:24:16.425Z,2.20
2022-09-28T05:26:44.096Z,2.60
2022-09-28T05:29:11.848Z,2.10
2022-09-28T05:31:40.929Z,2.33
2022-09-28T05:34:08.710Z,2.95
2022-09-28T05:36:38.624Z,2.85
2022-09-28T05:39:06.713Z,2.60
2022-09-28T05:41:34.655Z,2.30
2022-09-28T05:44:02.730Z,2.13
2022-09-28T05:46:30.622Z,2.08
2022-09-28T05:49:00.212Z,1.67
2022-09-28T05:51:27.896Z,2.30
2022-09-28T05:53:56.385Z,6.47
2022-09-28T05:56:24.091Z,2.70
2022-09-28T05:58:51.799Z,1.88
2022-09-28T06:01:19.506Z,2.10
2022-09-28T06:03:47.216Z,1.35
2022-09-28T06:06:16.307Z,1.58
2022-09-28T06:08:46.097Z,1.75
2022-09-28T06:11:13.901Z,1.85
2022-09-28T06:13:41.628Z,2.22
2022-09-28T06:16:10.477Z,2.95
2022-09-28T06:18:38.328Z,4.72
2022-09-28T06:21:08.141Z,7.28
2022-09-28T06:23:39.955Z,5.78
2022-09-28T06:26:08.702Z,3.88
2022-09-28T06:28:36.995Z,5.40
2022-09-28T06:31:04.831Z,4.22
2022-09-28T06:33:32.546Z,2.88
2022-09-28T06:36:00.832Z,3.38
2022-09-28T06:38:29.081Z,3.80
2022-09-28T06:40:59.223Z,3.10
2022-09-28T06:43:32.119Z,2.80
2022-09-28T06:46:02.822Z,2.75
2022-09-28T06:48:31.676Z,3.00
2022-09-28T06:50:59.441Z,3.00
2022-09-28T06:53:28.100Z,2.47
2022-09-28T06:55:57.844Z,2.60
2022-09-28T06:58:28.068Z,2.33
2022-09-28T07:00:59.170Z,2.83
2022-09-28T07:03:27.483Z,3.30
2022-09-28T07:05:56.634Z,2.50
2022-09-28T07:08:26.272Z,3.17
2022-09-28T07:10:56.096Z,3.13
2022-09-28T07:13:50.427Z,3.30
2022-09-28T07:16:15.672Z,3.30
2022-09-28T07:18:43.444Z,2.72
2022-09-28T07:21:21.927Z,2.30
2022-09-28T07:23:54.216Z,2.53
2022-09-28T07:26:24.368Z,2.60
2022-09-28T07:28:55.737Z,2.47
2022-09-28T07:31:25.094Z,2.03
2022-09-28T07:33:53.752Z,2.10
2022-09-28T07:36:22.552Z,1.88
2022-09-28T07:38:50.482Z,1.38
2022-09-28T07:41:22.276Z,1.45
2022-09-28T07:43:50.681Z,1.67
2022-09-28T07:46:21.126Z,1.67
2022-09-28T07:48:51.625Z,1.40
2022-09-28T07:51:20.037Z,1.60
2022-09-28T07:53:47.932Z,1.20
2022-09-28T07:56:17.291Z,1.30
2022-09-28T07:58:45.013Z,1.48
2022-09-28T08:01:14.873Z,1.40
2022-09-28T08:03:47.186Z,1.75
2022-09-28T08:06:17.574Z,1.35
2022-09-28T08:08:46.010Z,1.50
2022-09-28T08:11:16.610Z,1.25
2022-09-28T08:13:45.613Z,1.25
2022-09-28T08:16:13.755Z,1.17
2022-09-28T08:18:41.575Z,1.23
2022-09-28T08:21:29.496Z,1.25
2022-09-28T08:23:57.552Z,1.48
2022-09-28T08:26:25.251Z,1.30
2022-09-28T08:28:52.918Z,1.48
2022-09-28T08:31:20.788Z,1.83
2022-09-28T08:33:54.230Z,1.25
2022-09-28T08:36:23.877Z,1.30
2022-09-28T08:38:51.942Z,1.40
2022-09-28T08:41:31.299Z,1.50
2022-09-28T08:44:11.895Z,1.23
2022-09-28T08:46:43.336Z,1.30
2022-09-28T08:49:25.032Z,1.08
2022-09-28T08:52:00.266Z,1.10
2022-09-28T08:54:37.801Z,1.25
2022-09-28T08:57:12.220Z,1.08
2022-09-28T08:59:52.180Z,1.30
2022-09-28T09:02:25.355Z,1.10
2022-09-28T09:04:54.407Z,1.25
2022-09-28T09:07:37.516Z,1.40
2022-09-28T09:10:14.837Z,1.17
2022-09-28T09:15:41.555Z,1.25
2022-09-28T09:18:21.490Z,1.10
2022-09-28T09:20:53.336Z,1.15
2022-09-28T09:23:34.703Z,1.48
2022-09-28T09:26:10.533Z,0.93
2022-09-28T09:31:38.082Z,1.08
2022-09-28T09:34:20.752Z,0.88
2022-09-28T09:37:01.304Z,0.90
2022-09-28T09:39:42.515Z,1.08
2022-09-28T09:42:29.562Z,0.80
2022-09-28T09:45:23.557Z,0.82
2022-09-28T09:47:59.076Z,0.95
2022-09-28T09:50:31.896Z,0.90
2022-09-28T09:53:03.173Z,1.38
2022-09-28T09:55:38.444Z,0.70
2022-09-28T09:58:12.054Z,0.93
2022-09-28T10:00:41.903Z,0.77
2022-09-28T10:03:22.328Z,0.90
2022-09-28T10:05:57.351Z,0.98
2022-09-28T10:08:26.124Z,1.20
2022-09-28T10:11:03.372Z,0.80
2022-09-28T10:13:32.796Z,0.82
2022-09-28T10:16:00.835Z,0.90
2022-09-28T10:18:29.159Z,0.68
2022-09-28T10:20:56.869Z,1.08
2022-09-28T10:23:27.841Z,0.80
2022-09-28T10:26:03.148Z,0.80
2022-09-28T10:28:36.609Z,10.35
2022-09-28T10:31:35.193Z,1.10
2022-09-28T10:34:03.166Z,1.50
2022-09-28T10:36:38.060Z,0.88
2022-09-28T10:39:06.782Z,1.00
2022-09-28T10:41:50.562Z,0.77
2022-09-28T10:44:19.963Z,0.93
2022-09-28T10:46:57.595Z,2.53
2022-09-28T10:49:27.175Z,4.20
2022-09-28T10:51:57.033Z,1.90
2022-09-28T10:54:26.693Z,1.10
2022-09-28T10:56:57.910Z,1.30
2022-09-28T10:59:39.283Z,0.90
2022-09-28T11:02:21.250Z,0.80
2022-09-28T11:04:55.012Z,0.88
2022-09-28T11:07:26.016Z,1.20
2022-09-28T11:09:56.112Z,1.10
2022-09-28T11:12:27.260Z,0.70
2022-09-28T11:15:00.954Z,0.80
2022-09-28T11:17:32.500Z,0.68
2022-09-28T11:20:02.868Z,1.33
2022-09-28T11:22:41.722Z,0.77
2022-09-28T11:25:23.516Z,0.90
2022-09-28T11:28:01.314Z,1.00
2022-09-28T11:30:31.383Z,0.80
2022-09-28T11:33:04.647Z,0.75
2022-09-28T11:35:45.031Z,0.65
2022-09-28T11:38:34.612Z,0.68
2022-09-28T11:41:17.014Z,1.30
2022-09-28T11:43:57.891Z,1.00
2022-09-28T11:46:34.754Z,0.65
2022-09-28T11:49:07.831Z,1.00
2022-09-28T11:51:38.332Z,0.90
2022-09-28T11:54:14.700Z,0.68
2022-09-28T11:56:47.040Z,0.73
2022-09-28T11:59:21.480Z,0.68
2022-09-28T12:01:54.180Z,1.10
2022-09-28T12:04:27.163Z,1.30
2022-09-28T12:07:00.157Z,1.65
2022-09-28T12:09:36.200Z,0.85
2022-09-28T12:12:16.121Z,0.82
2022-09-28T12:14:48.001Z,0.82
2022-09-28T12:17:23.522Z,1.45
2022-09-28T12:19:57.647Z,0.65
2022-09-28T12:22:32.438Z,1.35
2022-09-28T12:25:01.508Z,0.90
2022-09-28T12:27:38.569Z,0.65
2022-09-28T12:30:15.197Z,0.70
2022-09-28T12:32:47.700Z,1.30
2022-09-28T12:35:18.588Z,0.65
2022-09-28T12:38:08.810Z,0.70
2022-09-28T12:40:46.490Z,2.08
2022-09-28T12:43:33.868Z,0.82
2022-09-28T12:46:22.786Z,0.70
2022-09-28T12:50:07.255Z,1.13
2022-09-28T12:52:05.876Z,0.60
2022-09-28T12:54:48.776Z,0.80
2022-09-28T12:57:41.519Z,0.80
2022-09-28T13:00:12.919Z,0.80
2022-09-28T13:03:16.021Z,1.52
2022-09-28T13:06:17.155Z,0.98
2022-09-28T13:08:57.085Z,0.93
2022-09-28T13:11:33.070Z,0.82
2022-09-28T13:14:15.685Z,0.80
2022-09-28T13:16:54.375Z,1.10
2022-09-28T13:19:36.904Z,1.73
2022-09-28T13:22:24.641Z,0.82
2022-09-28T13:24:56.151Z,2.15
2022-09-28T13:27:30.474Z,0.80
2022-09-28T13:30:02.373Z,1.20
2022-09-28T13:32:31.985Z,1.50
2022-09-28T13:35:02.423Z,0.80
2022-09-28T13:37:30.251Z,1.45
2022-09-28T13:39:58.994Z,1.00
2022-09-28T13:43:00.904Z,1.02
2022-09-28T13:45:56.512Z,0.98
2022-09-28T13:48:28.565Z,1.23
2022-09-28T13:51:21.768Z,0.90
2022-09-28T13:54:06.734Z,1.17
2022-09-28T13:56:40.104Z,1.10
2022-09-28T13:59:16.975Z,1.20
2022-09-28T14:01:55.541Z,1.02
2022-09-28T14:04:25.551Z,1.05
2022-09-28T14:06:57.857Z,1.58
2022-09-28T14:09:42.376Z,1.02
2022-09-28T14:12:43.838Z,0.80
2022-09-28T14:15:39.634Z,0.80
2022-09-28T14:18:15.311Z,1.65
2022-09-28T14:20:53.964Z,0.90
2022-09-28T14:23:45.367Z,1.60
2022-09-28T14:26:42.481Z,1.00
2022-09-28T14:29:28.315Z,1.30
2022-09-28T14:31:58.150Z,1.25
2022-09-28T14:34:37.789Z,1.10
2022-09-28T14:37:39.637Z,1.00
2022-09-28T14:40:36.564Z,1.35
2022-09-28T14:43:38.252Z,1.30
2022-09-28T14:46:29.685Z,1.33
2022-09-28T14:49:01.512Z,1.00
2022-09-28T14:52:02.482Z,0.90
2022-09-28T14:54:40.926Z,1.50
2022-09-28T14:57:18.325Z,0.88
2022-09-28T14:59:47.679Z,1.00
2022-09-28T15:02:24.630Z,1.20
2022-09-28T15:04:55.768Z,1.00
2022-09-28T15:07:27.114Z,0.85
2022-09-28T15:09:56.326Z,1.10
2022-09-28T15:12:28.651Z,0.90
2022-09-28T15:15:01.244Z,2.15
2022-09-28T15:17:38.468Z,1.45
2022-09-28T15:20:21.928Z,1.00
2022-09-28T15:22:52.061Z,1.42
2022-09-28T15:25:22.243Z,2.30
2022-09-28T15:27:55.117Z,2.20
2022-09-28T15:30:26.835Z,1.90
2022-09-28T15:32:56.756Z,2.15
2022-09-28T15:35:26.141Z,1.73
2022-09-28T15:37:55.834Z,1.73
2022-09-28T15:40:32.536Z,2.38
2022-09-28T15:43:02.380Z,1.40
2022-09-28T15:45:35.302Z,1.67
2022-09-28T15:48:21.425Z,1.95
2022-09-28T15:50:59.342Z,2.05
2022-09-28T15:53:27.808Z,1.33
2022-09-28T15:56:03.430Z,1.25
2022-09-28T15:58:32.507Z,1.58
2022-09-28T16:01:22.567Z,1.15
2022-09-28T16:03:51.383Z,0.88
2022-09-28T16:06:19.335Z,1.55
2022-09-28T16:08:49.477Z,1.92
2022-09-28T16:11:23.800Z,1.77
2022-09-28T16:14:01.685Z,1.60
2022-09-28T16:16:33.988Z,1.50
2022-09-28T16:19:03.168Z,1.60
2022-09-28T16:21:45.190Z,2.70
2022-09-28T16:24:25.381Z,1.63
2022-09-28T16:26:58.770Z,1.60
2022-09-28T16:29:36.384Z,1.50
2022-09-28T16:32:41.529Z,2.13
2022-09-28T16:35:21.509Z,1.80
2022-09-28T16:37:56.420Z,2.22
2022-09-28T16:40:27.297Z,1.60
2022-09-28T16:42:58.168Z,1.48
2022-09-28T16:45:28.391Z,1.63
2022-09-28T16:47:57.515Z,2.38
2022-09-28T16:50:26.400Z,2.70
2022-09-28T16:53:19.409Z,3.75
2022-09-28T16:55:49.452Z,3.92
2022-09-28T16:58:17.169Z,3.47
2022-09-28T17:00:46.244Z,2.05
2022-09-28T17:03:15.926Z,2.55
2022-09-28T17:05:44.031Z,2.15
2022-09-28T17:08:17.133Z,7.63
2022-09-28T17:11:12.996Z,3.92
2022-09-28T17:13:38.687Z,2.83
2022-09-28T17:16:12.791Z,3.67
2022-09-28T17:18:41.039Z,16.70
2022-09-28T17:21:13.082Z,11.02
2022-09-28T17:23:43.096Z,3.80
2022-09-28T17:26:20.149Z,2.65
2022-09-28T17:28:48.115Z,4.13
2022-09-28T17:31:17.780Z,7.03
2022-09-28T17:33:45.913Z,5.35
2022-09-28T17:36:16.629Z,2.10
2022-09-28T17:38:45.076Z,1.60
2022-09-28T17:41:18.055Z,2.13
2022-09-28T17:43:48.361Z,2.05
2022-09-28T17:46:29.058Z,2.20
2022-09-28T17:48:59.463Z,2.28
2022-09-28T17:51:28.234Z,2.70
2022-09-28T17:53:56.841Z,3.20
2022-09-28T17:56:29.721Z,2.72
2022-09-28T17:59:01.200Z,3.63
2022-09-28T18:01:33.949Z,2.30
2022-09-28T18:04:02.709Z,1.80
2022-09-28T18:06:38.320Z,2.13
2022-09-28T18:09:15.330Z,2.30
2022-09-28T18:11:46.079Z,4.70
2022-09-28T18:14:14.294Z,4.20
2022-09-28T18:16:44.085Z,2.75
2022-09-28T18:19:13.169Z,2.50
2022-09-28T18:21:41.067Z,2.88
2022-09-28T18:24:08.921Z,2.08
2022-09-28T18:26:37.809Z,3.30
2022-09-28T18:29:05.734Z,2.83
2022-09-28T18:31:33.749Z,2.72
2022-09-28T18:34:03.009Z,2.40
2022-09-28T18:36:35.592Z,2.47
2022-09-28T18:39:05.418Z,2.15
2022-09-28T18:41:33.405Z,2.00
2022-09-28T18:44:01.513Z,2.30
2022-09-28T18:46:30.163Z,1.95
2022-09-28T18:48:58.520Z,2.10
2022-09-28T18:51:28.080Z,3.17
2022-09-28T18:53:55.993Z,2.95
2022-09-28T18:56:23.862Z,2.70
2022-09-28T18:58:52.527Z,2.70
2022-09-28T19:01:30.718Z,2.72
2022-09-28T19:04:01.079Z,3.95
2022-09-28T19:06:31.984Z,6.40
2022-09-28T19:09:00.914Z,6.85
2022-09-28T19:11:29.098Z,4.47
2022-09-28T19:13:57.459Z,3.50
2022-09-28T19:16:27.272Z,5.10
2022-09-28T19:18:56.354Z,3.28
2022-09-28T19:21:24.529Z,3.92
2022-09-28T19:24:00.922Z,3.92
2022-09-28T19:26:29.727Z,2.55
2022-09-28T19:28:58.353Z,6.97
2022-09-28T19:31:28.001Z,6.43
2022-09-28T19:33:56.021Z,3.30
2022-09-28T19:36:25.612Z,2.80
2022-09-28T19:38:55.200Z,3.40
2022-09-28T19:41:45.551Z,3.25
2022-09-28T19:44:16.720Z,3.13
2022-09-28T19:46:44.797Z,3.10
2022-09-28T19:49:14.508Z,3.00
2022-09-28T19:52:01.776Z,3.22
2022-09-28T19:54:36.561Z,2.80
2022-09-28T19:57:09.001Z,2.50
2022-09-28T19:59:37.415Z,2.28
2022-09-28T20:02:05.725Z,2.92
2022-09-28T20:04:33.581Z,2.65
2022-09-28T20:07:01.806Z,4.05
2022-09-28T20:09:33.604Z,4.82
2022-09-28T20:12:01.894Z,4.85
2022-09-28T20:14:33.131Z,3.03
2022-09-28T20:17:04.547Z,2.80
2022-09-28T20:19:32.650Z,2.90
2022-09-28T20:22:02.586Z,3.90
2022-09-28T20:24:31.123Z,3.92
2022-09-28T20:27:02.714Z,2.70
2022-09-28T20:29:33.272Z,2.67
2022-09-28T20:32:01.731Z,2.25
2022-09-28T20:34:29.520Z,2.00
2022-09-28T20:36:57.404Z,2.30
2022-09-28T20:39:26.066Z,1.98
2022-09-28T20:41:54.994Z,2.20
2022-09-28T20:44:24.337Z,2.40
2022-09-28T20:46:53.978Z,2.15
2022-09-28T20:49:22.884Z,2.40
2022-09-28T20:51:51.099Z,2.90
2022-09-28T20:54:19.259Z,3.05
2022-09-28T20:56:48.189Z,2.63
2022-09-28T20:59:16.546Z,2.65
2022-09-28T21:01:45.822Z,3.10
2022-09-28T21:04:13.637Z,2.33
2022-09-28T21:06:42.959Z,3.00
2022-09-28T21:09:12.217Z,2.72
2022-09-28T21:11:40.374Z,2.63
2022-09-28T21:14:10.111Z,2.55
2022-09-28T21:16:38.894Z,2.45
2022-09-28T21:19:13.214Z,2.88
2022-09-28T21:21:45.177Z,2.60
2022-09-28T21:24:13.413Z,2.60
2022-09-28T21:26:44.973Z,2.92
2022-09-28T21:29:15.384Z,3.53
2022-09-28T21:31:46.622Z,3.05
2022-09-28T21:34:18.626Z,3.25
2022-09-28T21:36:47.148Z,3.30
2022-09-28T21:39:15.164Z,3.55
2022-09-28T21:41:42.985Z,3.20
2022-09-28T21:44:11.517Z,3.20
2022-09-28T21:46:39.857Z,3.72
2022-09-28T21:49:08.892Z,4.20
2022-09-28T21:51:38.526Z,3.15
2022-09-28T21:54:06.576Z,3.35
2022-09-28T21:56:34.428Z,4.60
2022-09-28T21:59:02.850Z,3.25
2022-09-28T22:01:31.675Z,3.30
2022-09-28T22:03:59.698Z,3.58
2022-09-28T22:06:28.938Z,3.38
2022-09-28T22:08:58.883Z,2.97
2022-09-28T22:11:28.595Z,3.10
2022-09-28T22:13:57.751Z,3.80
2022-09-28T22:16:28.063Z,3.78
2022-09-28T22:18:55.904Z,3.03
2022-09-28T22:21:26.329Z,3.20
2022-09-28T22:23:54.316Z,3.08
2022-09-28T22:26:25.514Z,3.35
2022-09-28T22:28:54.942Z,2.80
2022-09-28T22:31:24.250Z,2.92
2022-09-28T22:33:52.296Z,3.13
2022-09-28T22:36:20.385Z,2.95
2022-09-28T22:38:48.877Z,2.97
2022-09-28T22:41:18.677Z,2.65
2022-09-28T22:43:48.684Z,3.10
2022-09-28T22:46:18.647Z,3.55
2022-09-28T22:48:48.362Z,2.90
2022-09-28T22:51:16.675Z,2.83
2022-09-28T22:53:44.787Z,3.00
2022-09-28T22:56:18.205Z,3.08
2022-09-28T22:58:48.327Z,3.80
2022-09-28T23:01:19.112Z,3.03
2022-09-28T23:03:47.699Z,2.92
2022-09-28T23:06:16.993Z,2.83
2022-09-28T23:08:45.495Z,3.40
2022-09-28T23:11:13.300Z,3.42
2022-09-28T23:13:41.019Z,4.45
2022-09-28T23:16:12.811Z,3.85
2022-09-28T23:18:41.665Z,3.20
2022-09-28T23:21:12.290Z,3.38
2022-09-28T23:23:40.063Z,3.20
2022-09-28T23:26:12.258Z,3.42
2022-09-28T23:28:40.037Z,3.72
2022-09-28T23:31:14.850Z,3.45
2022-09-28T23:33:42.896Z,3.67
2022-09-28T23:36:11.067Z,3.50
2022-09-28T23:38:39.429Z,3.75
2022-09-28T23:41:07.820Z,3.28
2022-09-28T23:43:36.116Z,3.65
2022-09-28T23:46:04.800Z,4.18
2022-09-28T23:48:34.450Z,3.72
2022-09-28T23:51:02.793Z,3.70
2022-09-28T23:53:32.103Z,3.47
2022-09-28T23:55:59.865Z,3.75
2022-09-28T23:58:28.128Z,3.10
